Manhattan Regional Airport
KMHK : rendu visible

Aérodrome :











RETROUVEZ-NOUS SUR...

 
LOGIN :

S'inscrire | Disclaimer

   EN    FR    IT 

 









Légende :    VFR   VFR Marginal   IFR   IFR Intensif   IFR Très Intensif
Visi : 
Plafond : 
>= 8 km
>= 3000ft
5 à 8 km
1000 à 3000 ft
1500m à 5 km
500 à 1000 ft
800 à 1500m
200 à 500 ft
< 800m
< 200 ft
Symboles :   Orages  Brouillard  Fortes neiges  Fortes précipitations  Vent > 20 kt






- Altitude de l'aérodrome : 1057 ft
- Code IATA : MHK


KMHK - Manhattan Regional

DERNIER METAR :
  • 191552Z 36008KT 10SM CLR 16/08 A2983 RMK AO2 SLP099 T01560078

METARs EXPIRÉS :
  • 191452Z 01006KT 10SM CLR 14/08 A2982 RMK AO2 SLP097 T01390083 51024
  • 191352Z 34005KT 10SM BKN110 13/09 A2980 RMK AO2 SLP090 T01330094

TAF KMHK
Valide du 19 à 12h jusqu'au 20 à 12h UTC


191137Z 1912/2012 36007KT P6SM BKN070



MET'MAP, la Météo Aéronautique d'un coup d'oeil ! - Copyright ORBIFLY Décembre 2007 - Disclaimer

ORBIFLY MET'MAP TEAM :

Programmation & Développement : Alexandra Zaïnal
Conception & Développement : Baudouin d'Aumeries
Co-Programmation & Développement : Marc-Olivier Méhu
Soutien technique & logistique : Manuel Goepfert

Contact : metmap@orbifly.com




SOURCES & CREDITS :

   NOAA       Earth
Advisory